sensor_id;sensor_type;location;lat;lon;timestamp;P1;durP1;ratioP1;P2;durP2;ratioP2
35394;SDS011;21500;45.308;9.488;2023-02-08T11:06:49;16.63;;;12.15;;
35394;SDS011;21500;45.308;9.488;2023-02-08T11:09:25;16.75;;;11.32;;
35394;SDS011;21500;45.308;9.488;2023-02-08T11:11:56;25.58;;;12.32;;
35394;SDS011;21500;45.308;9.488;2023-02-08T11:14:26;18.20;;;12.68;;
35394;SDS011;21500;45.308;9.488;2023-02-08T11:20:19;14.60;;;11.32;;
35394;SDS011;21500;45.308;9.488;2023-02-08T11:22:51;15.50;;;11.85;;
35394;SDS011;21500;45.308;9.488;2023-02-08T11:25:34;12.98;;;10.57;;
35394;SDS011;21500;45.308;9.488;2023-02-08T11:28:02;14.93;;;11.38;;
35394;SDS011;21500;45.308;9.488;2023-02-08T11:30:29;16.98;;;11.25;;
35394;SDS011;21500;45.308;9.488;2023-02-08T11:33:12;16.15;;;12.38;;
35394;SDS011;21500;45.308;9.488;2023-02-08T11:35:53;19.67;;;11.60;;
35394;SDS011;21500;45.308;9.488;2023-02-08T11:38:22;14.43;;;11.50;;
35394;SDS011;21500;45.308;9.488;2023-02-08T11:40:52;19.33;;;12.05;;
35394;SDS011;21500;45.308;9.488;2023-02-08T11:43:24;16.50;;;11.85;;
35394;SDS011;21500;45.308;9.488;2023-02-08T11:46:00;17.10;;;12.18;;
35394;SDS011;21500;45.308;9.488;2023-02-08T11:48:39;15.65;;;11.93;;
35394;SDS011;21500;45.308;9.488;2023-02-08T11:51:11;20.58;;;11.82;;
35394;SDS011;21500;45.308;9.488;2023-02-08T11:53:48;13.50;;;11.18;;
35394;SDS011;21500;45.308;9.488;2023-02-08T11:56:21;16.48;;;12.27;;
35394;SDS011;21500;45.308;9.488;2023-02-08T11:58:59;15.48;;;11.80;;
35394;SDS011;21500;45.308;9.488;2023-02-08T12:01:34;16.48;;;11.30;;
35394;SDS011;21500;45.308;9.488;2023-02-08T12:04:02;15.35;;;11.15;;
35394;SDS011;21500;45.308;9.488;2023-02-08T12:06:35;20.45;;;12.02;;
35394;SDS011;21500;45.308;9.488;2023-02-08T12:14:34;14.20;;;10.70;;
35394;SDS011;21500;45.308;9.488;2023-02-08T12:20:00;14.48;;;11.35;;
35394;SDS011;21500;45.308;9.488;2023-02-08T12:25:38;14.82;;;11.88;;
35394;SDS011;21500;45.308;9.488;2023-02-08T12:28:20;16.83;;;10.43;;
35394;SDS011;21500;45.308;9.488;2023-02-08T12:31:10;13.93;;;11.20;;
35394;SDS011;21500;45.308;9.488;2023-02-08T12:48:16;15.75;;;12.23;;
35394;SDS011;21500;45.308;9.488;2023-02-08T12:51:24;12.98;;;10.75;;
35394;SDS011;21500;45.308;9.488;2023-02-08T12:54:03;14.95;;;11.15;;
35394;SDS011;21500;45.308;9.488;2023-02-08T12:56:37;16.35;;;11.35;;
35394;SDS011;21500;45.308;9.488;2023-02-08T12:59:09;14.75;;;11.57;;
35394;SDS011;21500;45.308;9.488;2023-02-08T13:01:45;15.60;;;11.93;;
35394;SDS011;21500;45.308;9.488;2023-02-08T13:06:55;17.52;;;12.38;;
35394;SDS011;21500;45.308;9.488;2023-02-08T13:12:20;17.50;;;13.48;;
35394;SDS011;21500;45.308;9.488;2023-02-08T13:14:51;15.70;;;11.48;;
35394;SDS011;21500;45.308;9.488;2023-02-08T13:20:02;13.93;;;10.70;;
35394;SDS011;21500;45.308;9.488;2023-02-08T13:22:36;16.75;;;11.55;;
35394;SDS011;21500;45.308;9.488;2023-02-08T13:25:06;14.05;;;12.00;;
35394;SDS011;21500;45.308;9.488;2023-02-08T13:27:40;17.05;;;11.93;;
35394;SDS011;21500;45.308;9.488;2023-02-08T13:30:06;14.63;;;11.00;;
35394;SDS011;21500;45.308;9.488;2023-02-08T13:32:44;16.65;;;12.35;;
35394;SDS011;21500;45.308;9.488;2023-02-08T13:35:15;15.13;;;12.05;;
35394;SDS011;21500;45.308;9.488;2023-02-08T13:37:52;16.00;;;11.38;;
35394;SDS011;21500;45.308;9.488;2023-02-08T13:40:27;11.80;;;10.20;;
35394;SDS011;21500;45.308;9.488;2023-02-08T13:43:00;16.55;;;11.48;;
35394;SDS011;21500;45.308;9.488;2023-02-08T13:45:30;16.45;;;10.98;;
35394;SDS011;21500;45.308;9.488;2023-02-08T13:48:05;13.40;;;10.70;;
35394;SDS011;21500;45.308;9.488;2023-02-08T13:53:07;13.82;;;10.80;;
35394;SDS011;21500;45.308;9.488;2023-02-08T13:55:38;15.45;;;11.20;;
35394;SDS011;21500;45.308;9.488;2023-02-08T13:58:33;14.27;;;10.93;;
35394;SDS011;21500;45.308;9.488;2023-02-08T14:01:31;16.13;;;11.43;;
35394;SDS011;21500;45.308;9.488;2023-02-08T14:06:31;14.25;;;11.68;;
35394;SDS011;21500;45.308;9.488;2023-02-08T14:09:48;17.98;;;10.70;;
35394;SDS011;21500;45.308;9.488;2023-02-08T14:12:04;13.45;;;11.32;;
35394;SDS011;21500;45.308;9.488;2023-02-08T14:14:36;14.35;;;10.60;;
35394;SDS011;21500;45.308;9.488;2023-02-08T14:19:29;15.07;;;10.82;;
35394;SDS011;21500;45.308;9.488;2023-02-08T14:27:23;15.48;;;10.60;;
35394;SDS011;21500;45.308;9.488;2023-02-08T14:30:01;13.88;;;11.15;;
35394;SDS011;21500;45.308;9.488;2023-02-08T14:32:28;15.25;;;12.38;;
35394;SDS011;21500;45.308;9.488;2023-02-08T14:35:07;17.80;;;11.82;;
35394;SDS011;21500;45.308;9.488;2023-02-08T14:37:40;18.00;;;10.43;;
35394;SDS011;21500;45.308;9.488;2023-02-08T14:45:25;15.00;;;11.07;;
35394;SDS011;21500;45.308;9.488;2023-02-08T14:47:56;16.02;;;11.82;;
35394;SDS011;21500;45.308;9.488;2023-02-08T14:50:26;16.05;;;11.10;;
35394;SDS011;21500;45.308;9.488;2023-02-08T14:53:04;14.05;;;11.00;;
35394;SDS011;21500;45.308;9.488;2023-02-08T14:55:47;19.85;;;11.95;;
35394;SDS011;21500;45.308;9.488;2023-02-08T14:58:17;15.68;;;12.07;;
35394;SDS011;21500;45.308;9.488;2023-02-08T15:00:51;15.95;;;11.55;;
35394;SDS011;21500;45.308;9.488;2023-02-08T15:03:19;16.00;;;11.77;;
35394;SDS011;21500;45.308;9.488;2023-02-08T15:08:39;15.30;;;11.68;;
35394;SDS011;21500;45.308;9.488;2023-02-08T15:11:15;15.77;;;11.40;;
35394;SDS011;21500;45.308;9.488;2023-02-08T15:13:47;13.63;;;11.25;;
35394;SDS011;21500;45.308;9.488;2023-02-08T15:16:14;16.15;;;11.98;;
35394;SDS011;21500;45.308;9.488;2023-02-08T15:18:40;15.73;;;12.15;;
35394;SDS011;21500;45.308;9.488;2023-02-08T15:21:15;13.13;;;10.85;;
35394;SDS011;21500;45.308;9.488;2023-02-08T15:24:12;13.50;;;11.13;;
35394;SDS011;21500;45.308;9.488;2023-02-08T15:26:44;13.35;;;11.35;;
35394;SDS011;21500;45.308;9.488;2023-02-08T15:29:25;12.57;;;11.25;;
35394;SDS011;21500;45.308;9.488;2023-02-08T15:31:53;13.68;;;11.50;;
35394;SDS011;21500;45.308;9.488;2023-02-08T15:34:21;14.55;;;11.38;;
35394;SDS011;21500;45.308;9.488;2023-02-08T15:36:50;14.20;;;11.35;;
35394;SDS011;21500;45.308;9.488;2023-02-08T15:39:33;15.55;;;11.82;;
35394;SDS011;21500;45.308;9.488;2023-02-08T15:42:02;12.02;;;10.70;;
35394;SDS011;21500;45.308;9.488;2023-02-08T15:44:30;13.73;;;12.18;;
35394;SDS011;21500;45.308;9.488;2023-02-08T15:46:59;16.83;;;11.60;;
35394;SDS011;21500;45.308;9.488;2023-02-08T15:49:34;14.93;;;12.23;;
35394;SDS011;21500;45.308;9.488;2023-02-08T15:52:04;14.40;;;11.65;;
35394;SDS011;21500;45.308;9.488;2023-02-08T15:54:31;15.57;;;11.13;;
35394;SDS011;21500;45.308;9.488;2023-02-08T15:59:24;14.68;;;11.10;;
35394;SDS011;21500;45.308;9.488;2023-02-08T16:01:54;13.37;;;10.87;;
35394;SDS011;21500;45.308;9.488;2023-02-08T16:04:22;12.63;;;10.18;;
35394;SDS011;21500;45.308;9.488;2023-02-08T16:06:51;13.45;;;9.85;;
35394;SDS011;21500;45.308;9.488;2023-02-08T16:09:23;11.02;;;9.18;;
35394;SDS011;21500;45.308;9.488;2023-02-08T16:11:59;14.02;;;9.85;;
35394;SDS011;21500;45.308;9.488;2023-02-08T16:14:25;12.90;;;10.20;;
35394;SDS011;21500;45.308;9.488;2023-02-08T16:16:53;14.82;;;9.38;;
35394;SDS011;21500;45.308;9.488;2023-02-08T16:19:25;11.88;;;9.45;;
35394;SDS011;21500;45.308;9.488;2023-02-08T16:22:40;12.30;;;8.57;;
35394;SDS011;21500;45.308;9.488;2023-02-08T16:24:49;11.35;;;8.50;;
35394;SDS011;21500;45.308;9.488;2023-02-08T16:27:25;10.75;;;8.13;;
35394;SDS011;21500;45.308;9.488;2023-02-08T16:29:54;12.88;;;7.93;;
35394;SDS011;21500;45.308;9.488;2023-02-08T16:32:25;11.02;;;8.15;;
35394;SDS011;21500;45.308;9.488;2023-02-08T16:34:54;12.30;;;8.80;;
35394;SDS011;21500;45.308;9.488;2023-02-08T16:47:57;14.13;;;8.50;;
35394;SDS011;21500;45.308;9.488;2023-02-08T16:50:24;15.23;;;9.65;;
35394;SDS011;21500;45.308;9.488;2023-02-08T16:52:53;12.45;;;9.50;;
35394;SDS011;21500;45.308;9.488;2023-02-08T16:55:26;12.65;;;9.82;;
35394;SDS011;21500;45.308;9.488;2023-02-08T16:57:56;12.00;;;9.15;;
35394;SDS011;21500;45.308;9.488;2023-02-08T17:00:27;13.32;;;8.55;;
35394;SDS011;21500;45.308;9.488;2023-02-08T17:02:54;11.88;;;9.40;;
35394;SDS011;21500;45.308;9.488;2023-02-08T17:05:22;15.70;;;9.43;;
35394;SDS011;21500;45.308;9.488;2023-02-08T17:07:57;13.80;;;9.65;;
35394;SDS011;21500;45.308;9.488;2023-02-08T17:10:28;16.13;;;10.40;;
